sensor_id;sensor_type;location;lat;lon;timestamp;P1;durP1;ratioP1;P2;durP2;ratioP2
45033;SDS011;30771;47.988;-4.186;2022-10-16T06:02:00;184.00;;;6.75;;
45033;SDS011;30771;47.988;-4.186;2022-10-16T06:04:25;377.70;;;10.50;;
45033;SDS011;30771;47.988;-4.186;2022-10-16T06:06:50;408.73;;;10.90;;
45033;SDS011;30771;47.988;-4.186;2022-10-16T06:09:15;456.23;;;11.82;;
45033;SDS011;30771;47.988;-4.186;2022-10-16T06:11:41;368.02;;;10.80;;
45033;SDS011;30771;47.988;-4.186;2022-10-16T06:14:07;420.70;;;11.30;;
45033;SDS011;30771;47.988;-4.186;2022-10-16T06:16:34;214.80;;;8.23;;
45033;SDS011;30771;47.988;-4.186;2022-10-16T06:19:00;318.98;;;10.05;;
45033;SDS011;30771;47.988;-4.186;2022-10-16T06:21:26;269.67;;;10.35;;
45033;SDS011;30771;47.988;-4.186;2022-10-16T06:23:53;434.85;;;13.38;;
45033;SDS011;30771;47.988;-4.186;2022-10-16T06:26:22;377.55;;;13.73;;
45033;SDS011;30771;47.988;-4.186;2022-10-16T06:28:49;376.73;;;13.05;;
45033;SDS011;30771;47.988;-4.186;2022-10-16T06:31:15;475.70;;;14.70;;
45033;SDS011;30771;47.988;-4.186;2022-10-16T06:33:41;486.02;;;17.17;;
45033;SDS011;30771;47.988;-4.186;2022-10-16T06:36:10;503.10;;;16.02;;
45033;SDS011;30771;47.988;-4.186;2022-10-16T06:38:38;427.00;;;14.52;;
45033;SDS011;30771;47.988;-4.186;2022-10-16T06:41:04;441.73;;;14.75;;
45033;SDS011;30771;47.988;-4.186;2022-10-16T06:43:30;348.75;;;12.55;;
45033;SDS011;30771;47.988;-4.186;2022-10-16T06:45:56;502.05;;;15.75;;
45033;SDS011;30771;47.988;-4.186;2022-10-16T06:48:23;503.80;;;16.10;;
45033;SDS011;30771;47.988;-4.186;2022-10-16T06:50:58;446.25;;;14.80;;
45033;SDS011;30771;47.988;-4.186;2022-10-16T06:53:26;370.50;;;13.98;;
45033;SDS011;30771;47.988;-4.186;2022-10-16T06:55:53;379.35;;;13.98;;
45033;SDS011;30771;47.988;-4.186;2022-10-16T06:58:19;517.97;;;16.80;;
45033;SDS011;30771;47.988;-4.186;2022-10-16T07:00:44;398.20;;;14.25;;
45033;SDS011;30771;47.988;-4.186;2022-10-16T07:03:10;350.98;;;13.30;;
45033;SDS011;30771;47.988;-4.186;2022-10-16T07:05:38;343.20;;;12.88;;
45033;SDS011;30771;47.988;-4.186;2022-10-16T07:08:05;310.02;;;12.43;;
45033;SDS011;30771;47.988;-4.186;2022-10-16T07:10:30;255.70;;;11.65;;
45033;SDS011;30771;47.988;-4.186;2022-10-16T07:12:56;377.98;;;15.18;;
45033;SDS011;30771;47.988;-4.186;2022-10-16T07:15:21;329.13;;;12.75;;
45033;SDS011;30771;47.988;-4.186;2022-10-16T07:17:47;243.98;;;11.70;;
45033;SDS011;30771;47.988;-4.186;2022-10-16T07:20:12;203.30;;;12.00;;
45033;SDS011;30771;47.988;-4.186;2022-10-16T07:22:37;175.38;;;9.98;;
45033;SDS011;30771;47.988;-4.186;2022-10-16T07:25:03;225.90;;;11.80;;
45033;SDS011;30771;47.988;-4.186;2022-10-16T07:27:28;105.38;;;9.70;;
45033;SDS011;30771;47.988;-4.186;2022-10-16T07:29:54;115.35;;;10.25;;
45033;SDS011;30771;47.988;-4.186;2022-10-16T07:32:19;78.53;;;9.65;;
45033;SDS011;30771;47.988;-4.186;2022-10-16T07:34:44;87.03;;;10.20;;
45033;SDS011;30771;47.988;-4.186;2022-10-16T07:37:10;149.15;;;11.73;;
45033;SDS011;30771;47.988;-4.186;2022-10-16T07:39:35;97.20;;;11.02;;
45033;SDS011;30771;47.988;-4.186;2022-10-16T07:42:00;29.08;;;8.90;;
45033;SDS011;30771;47.988;-4.186;2022-10-16T07:44:25;27.30;;;8.07;;
45033;SDS011;30771;47.988;-4.186;2022-10-16T07:46:51;23.35;;;7.70;;
45033;SDS011;30771;47.988;-4.186;2022-10-16T07:49:16;26.92;;;7.53;;
45033;SDS011;30771;47.988;-4.186;2022-10-16T07:51:41;20.17;;;7.18;;
45033;SDS011;30771;47.988;-4.186;2022-10-16T07:54:08;23.17;;;7.10;;
45033;SDS011;30771;47.988;-4.186;2022-10-16T07:56:36;25.08;;;6.68;;
45033;SDS011;30771;47.988;-4.186;2022-10-16T07:59:01;25.67;;;7.25;;
45033;SDS011;30771;47.988;-4.186;2022-10-16T08:01:27;25.00;;;6.47;;
45033;SDS011;30771;47.988;-4.186;2022-10-16T08:03:52;16.73;;;6.60;;
45033;SDS011;30771;47.988;-4.186;2022-10-16T08:06:18;17.90;;;6.32;;
45033;SDS011;30771;47.988;-4.186;2022-10-16T08:08:44;21.58;;;6.35;;
45033;SDS011;30771;47.988;-4.186;2022-10-16T08:11:10;20.52;;;6.38;;
45033;SDS011;30771;47.988;-4.186;2022-10-16T08:13:35;17.63;;;5.63;;
45033;SDS011;30771;47.988;-4.186;2022-10-16T08:16:01;19.13;;;6.07;;
45033;SDS011;30771;47.988;-4.186;2022-10-16T08:18:26;24.73;;;6.20;;
45033;SDS011;30771;47.988;-4.186;2022-10-16T08:20:56;21.25;;;6.38;;
45033;SDS011;30771;47.988;-4.186;2022-10-16T08:23:22;16.38;;;5.80;;
45033;SDS011;30771;47.988;-4.186;2022-10-16T08:25:47;18.58;;;6.40;;
45033;SDS011;30771;47.988;-4.186;2022-10-16T08:28:13;22.65;;;6.57;;
45033;SDS011;30771;47.988;-4.186;2022-10-16T08:30:38;19.75;;;6.38;;
45033;SDS011;30771;47.988;-4.186;2022-10-16T08:33:03;20.40;;;7.10;;
45033;SDS011;30771;47.988;-4.186;2022-10-16T08:35:29;17.23;;;6.75;;
45033;SDS011;30771;47.988;-4.186;2022-10-16T08:37:55;19.27;;;6.35;;
45033;SDS011;30771;47.988;-4.186;2022-10-16T08:40:23;18.30;;;5.80;;
45033;SDS011;30771;47.988;-4.186;2022-10-16T08:48:57;15.88;;;5.43;;
45033;SDS011;30771;47.988;-4.186;2022-10-16T08:51:28;13.80;;;5.30;;
45033;SDS011;30771;47.988;-4.186;2022-10-16T08:53:58;18.30;;;5.70;;
45033;SDS011;30771;47.988;-4.186;2022-10-16T08:56:29;19.15;;;4.93;;
45033;SDS011;30771;47.988;-4.186;2022-10-16T08:58:54;16.55;;;5.45;;
45033;SDS011;30771;47.988;-4.186;2022-10-16T09:01:22;20.50;;;5.80;;
45033;SDS011;30771;47.988;-4.186;2022-10-16T09:12:22;17.00;;;5.07;;
45033;SDS011;30771;47.988;-4.186;2022-10-16T09:25:30;12.50;;;4.85;;
45033;SDS011;30771;47.988;-4.186;2022-10-16T09:27:57;21.33;;;4.82;;
45033;SDS011;30771;47.988;-4.186;2022-10-16T09:30:23;14.35;;;4.38;;
45033;SDS011;30771;47.988;-4.186;2022-10-16T09:32:57;12.07;;;4.22;;
45033;SDS011;30771;47.988;-4.186;2022-10-16T09:37:59;16.67;;;4.28;;
45033;SDS011;30771;47.988;-4.186;2022-10-16T09:40:29;18.10;;;4.50;;
45033;SDS011;30771;47.988;-4.186;2022-10-16T09:45:41;20.67;;;5.03;;
45033;SDS011;30771;47.988;-4.186;2022-10-16T09:48:12;20.05;;;5.15;;
45033;SDS011;30771;47.988;-4.186;2022-10-16T09:50:54;23.92;;;6.15;;
45033;SDS011;30771;47.988;-4.186;2022-10-16T09:53:21;17.20;;;5.95;;
45033;SDS011;30771;47.988;-4.186;2022-10-16T09:55:50;24.17;;;6.53;;
45033;SDS011;30771;47.988;-4.186;2022-10-16T09:58:17;20.60;;;5.75;;
45033;SDS011;30771;47.988;-4.186;2022-10-16T10:00:49;14.40;;;3.60;;
45033;SDS011;30771;47.988;-4.186;2022-10-16T10:06:05;18.35;;;4.03;;
45033;SDS011;30771;47.988;-4.186;2022-10-16T10:08:54;16.70;;;3.83;;
45033;SDS011;30771;47.988;-4.186;2022-10-16T10:22:16;11.75;;;2.08;;
45033;SDS011;30771;47.988;-4.186;2022-10-16T10:24:43;11.02;;;2.63;;
45033;SDS011;30771;47.988;-4.186;2022-10-16T10:27:11;13.00;;;3.17;;
45033;SDS011;30771;47.988;-4.186;2022-10-16T10:32:26;6.30;;;1.67;;
45033;SDS011;30771;47.988;-4.186;2022-10-16T10:46:38;10.98;;;2.10;;
45033;SDS011;30771;47.988;-4.186;2022-10-16T10:49:22;12.82;;;1.90;;
45033;SDS011;30771;47.988;-4.186;2022-10-16T10:52:26;13.55;;;2.08;;
45033;SDS011;30771;47.988;-4.186;2022-10-16T11:01:12;12.30;;;2.20;;
45033;SDS011;30771;47.988;-4.186;2022-10-16T11:13:59;16.10;;;3.60;;
45033;SDS011;30771;47.988;-4.186;2022-10-16T11:17:09;11.05;;;2.03;;
45033;SDS011;30771;47.988;-4.186;2022-10-16T11:20:21;17.02;;;2.58;;
45033;SDS011;30771;47.988;-4.186;2022-10-16T11:22:40;17.80;;;2.40;;
45033;SDS011;30771;47.988;-4.186;2022-10-16T11:30:29;17.30;;;2.35;;
45033;SDS011;30771;47.988;-4.186;2022-10-16T11:40:50;19.88;;;3.00;;
45033;SDS011;30771;47.988;-4.186;2022-10-16T11:45:49;8.43;;;2.20;;
45033;SDS011;30771;47.988;-4.186;2022-10-16T11:50:53;23.25;;;2.70;;
45033;SDS011;30771;47.988;-4.186;2022-10-16T11:55:47;18.02;;;3.40;;
45033;SDS011;30771;47.988;-4.186;2022-10-16T12:04:16;6.22;;;2.50;;
45033;SDS011;30771;47.988;-4.186;2022-10-16T12:06:47;7.32;;;2.10;;
45033;SDS011;30771;47.988;-4.186;2022-10-16T12:09:27;7.32;;;2.30;;
45033;SDS011;30771;47.988;-4.186;2022-10-16T12:11:55;12.75;;;2.00;;
45033;SDS011;30771;47.988;-4.186;2022-10-16T12:19:22;17.70;;;2.70;;
45033;SDS011;30771;47.988;-4.186;2022-10-16T12:21:49;20.13;;;2.65;;
45033;SDS011;30771;47.988;-4.186;2022-10-16T12:24:36;12.57;;;2.95;;
45033;SDS011;30771;47.988;-4.186;2022-10-16T12:27:04;15.43;;;2.60;;
45033;SDS011;30771;47.988;-4.186;2022-10-16T12:29:41;23.13;;;3.10;;
45033;SDS011;30771;47.988;-4.186;2022-10-16T12:32:29;22.52;;;3.28;;
45033;SDS011;30771;47.988;-4.186;2022-10-16T12:34:56;17.80;;;2.73;;
45033;SDS011;30771;47.988;-4.186;2022-10-16T12:37:24;18.13;;;2.50;;
45033;SDS011;30771;47.988;-4.186;2022-10-16T12:39:51;19.45;;;2.40;;
45033;SDS011;30771;47.988;-4.186;2022-10-16T12:42:19;20.17;;;2.80;;
45033;SDS011;30771;47.988;-4.186;2022-10-16T12:48:20;30.40;;;3.92;;
45033;SDS011;30771;47.988;-4.186;2022-10-16T12:50:46;28.63;;;4.03;;
45033;SDS011;30771;47.988;-4.186;2022-10-16T12:53:19;19.90;;;3.55;;
45033;SDS011;30771;47.988;-4.186;2022-10-16T12:56:04;32.17;;;6.35;;
45033;SDS011;30771;47.988;-4.186;2022-10-16T13:07:26;29.98;;;4.35;;
45033;SDS011;30771;47.988;-4.186;2022-10-16T13:09:53;34.05;;;4.10;;
45033;SDS011;30771;47.988;-4.186;2022-10-16T13:15:28;29.67;;;4.20;;
45033;SDS011;30771;47.988;-4.186;2022-10-16T13:18:02;27.90;;;3.60;;
45033;SDS011;30771;47.988;-4.186;2022-10-16T13:28:51;20.73;;;3.20;;
45033;SDS011;30771;47.988;-4.186;2022-10-16T13:31:18;25.83;;;3.42;;
45033;SDS011;30771;47.988;-4.186;2022-10-16T13:33:47;45.50;;;4.82;;
45033;SDS011;30771;47.988;-4.186;2022-10-16T13:36:19;46.50;;;5.32;;
45033;SDS011;30771;47.988;-4.186;2022-10-16T13:38:47;27.50;;;3.80;;
45033;SDS011;30771;47.988;-4.186;2022-10-16T13:41:16;28.10;;;3.10;;
45033;SDS011;30771;47.988;-4.186;2022-10-16T13:43:43;30.00;;;3.42;;
45033;SDS011;30771;47.988;-4.186;2022-10-16T13:48:38;26.45;;;3.00;;
45033;SDS011;30771;47.988;-4.186;2022-10-16T13:53:38;18.35;;;3.40;;
45033;SDS011;30771;47.988;-4.186;2022-10-16T13:56:05;22.50;;;3.67;;
45033;SDS011;30771;47.988;-4.186;2022-10-16T13:58:34;22.77;;;3.92;;
45033;SDS011;30771;47.988;-4.186;2022-10-16T14:01:00;24.08;;;3.55;;
45033;SDS011;30771;47.988;-4.186;2022-10-16T14:03:28;20.88;;;3.10;;
45033;SDS011;30771;47.988;-4.186;2022-10-16T14:05:57;16.58;;;3.10;;
45033;SDS011;30771;47.988;-4.186;2022-10-16T14:08:25;32.83;;;4.45;;
45033;SDS011;30771;47.988;-4.186;2022-10-16T14:10:53;23.30;;;3.83;;
45033;SDS011;30771;47.988;-4.186;2022-10-16T14:13:27;17.98;;;4.03;;
45033;SDS011;30771;47.988;-4.186;2022-10-16T14:15:56;23.77;;;4.03;;
45033;SDS011;30771;47.988;-4.186;2022-10-16T14:18:22;18.52;;;3.45;;
45033;SDS011;30771;47.988;-4.186;2022-10-16T14:20:50;24.58;;;4.80;;
45033;SDS011;30771;47.988;-4.186;2022-10-16T14:25:44;18.33;;;2.75;;
45033;SDS011;30771;47.988;-4.186;2022-10-16T14:30:47;25.10;;;3.72;;
45033;SDS011;30771;47.988;-4.186;2022-10-16T14:33:24;32.42;;;3.78;;
45033;SDS011;30771;47.988;-4.186;2022-10-16T14:38:39;19.73;;;3.22;;
45033;SDS011;30771;47.988;-4.186;2022-10-16T14:41:07;16.50;;;3.08;;
45033;SDS011;30771;47.988;-4.186;2022-10-16T14:43:36;12.43;;;2.63;;
45033;SDS011;30771;47.988;-4.186;2022-10-16T14:46:07;15.00;;;2.70;;
45033;SDS011;30771;47.988;-4.186;2022-10-16T14:48:40;14.02;;;2.55;;
45033;SDS011;30771;47.988;-4.186;2022-10-16T14:51:08;17.00;;;2.80;;
45033;SDS011;30771;47.988;-4.186;2022-10-16T14:53:39;16.25;;;2.33;;
45033;SDS011;30771;47.988;-4.186;2022-10-16T14:56:07;12.65;;;2.53;;
45033;SDS011;30771;47.988;-4.186;2022-10-16T14:58:34;15.80;;;3.20;;
45033;SDS011;30771;47.988;-4.186;2022-10-16T15:00:59;17.38;;;2.85;;
45033;SDS011;30771;47.988;-4.186;2022-10-16T15:03:25;14.77;;;3.00;;
45033;SDS011;30771;47.988;-4.186;2022-10-16T15:05:50;11.85;;;2.15;;
45033;SDS011;30771;47.988;-4.186;2022-10-16T15:08:15;16.65;;;2.42;;
45033;SDS011;30771;47.988;-4.186;2022-10-16T15:10:41;11.77;;;2.35;;
45033;SDS011;30771;47.988;-4.186;2022-10-16T15:13:11;15.10;;;2.15;;
45033;SDS011;30771;47.988;-4.186;2022-10-16T15:15:40;12.10;;;1.88;;
45033;SDS011;30771;47.988;-4.186;2022-10-16T15:18:08;15.48;;;3.15;;
45033;SDS011;30771;47.988;-4.186;2022-10-16T15:20:34;13.63;;;2.92;;
45033;SDS011;30771;47.988;-4.186;2022-10-16T15:23:01;27.05;;;3.65;;
45033;SDS011;30771;47.988;-4.186;2022-10-16T15:25:38;13.65;;;2.50;;
45033;SDS011;30771;47.988;-4.186;2022-10-16T15:28:06;18.73;;;2.83;;
45033;SDS011;30771;47.988;-4.186;2022-10-16T15:30:32;20.85;;;2.83;;
45033;SDS011;30771;47.988;-4.186;2022-10-16T15:32:57;16.73;;;2.80;;
45033;SDS011;30771;47.988;-4.186;2022-10-16T15:35:23;19.05;;;3.13;;
45033;SDS011;30771;47.988;-4.186;2022-10-16T15:37:48;21.33;;;2.83;;
45033;SDS011;30771;47.988;-4.186;2022-10-16T15:40:14;20.45;;;4.25;;
45033;SDS011;30771;47.988;-4.186;2022-10-16T15:42:41;24.75;;;3.08;;
45033;SDS011;30771;47.988;-4.186;2022-10-16T15:45:06;24.60;;;3.33;;
45033;SDS011;30771;47.988;-4.186;2022-10-16T15:47:33;23.95;;;3.42;;
45033;SDS011;30771;47.988;-4.186;2022-10-16T15:49:58;16.40;;;3.25;;
45033;SDS011;30771;47.988;-4.186;2022-10-16T15:52:23;23.63;;;3.35;;
45033;SDS011;30771;47.988;-4.186;2022-10-16T15:54:49;21.13;;;3.17;;
45033;SDS011;30771;47.988;-4.186;2022-10-16T15:57:14;18.65;;;3.47;;
45033;SDS011;30771;47.988;-4.186;2022-10-16T15:59:39;23.98;;;3.15;;
45033;SDS011;30771;47.988;-4.186;2022-10-16T16:02:04;28.35;;;2.90;;
45033;SDS011;30771;47.988;-4.186;2022-10-16T16:04:30;19.75;;;2.80;;
45033;SDS011;30771;47.988;-4.186;2022-10-16T16:06:55;22.10;;;3.22;;
45033;SDS011;30771;47.988;-4.186;2022-10-16T16:09:20;21.45;;;3.83;;
45033;SDS011;30771;47.988;-4.186;2022-10-16T16:11:46;21.05;;;3.60;;
45033;SDS011;30771;47.988;-4.186;2022-10-16T16:14:14;26.23;;;3.25;;
45033;SDS011;30771;47.988;-4.186;2022-10-16T16:16:39;27.38;;;3.50;;
45033;SDS011;30771;47.988;-4.186;2022-10-16T16:19:05;23.60;;;4.13;;
45033;SDS011;30771;47.988;-4.186;2022-10-16T16:21:30;19.88;;;4.18;;
45033;SDS011;30771;47.988;-4.186;2022-10-16T16:23:55;24.08;;;3.70;;
45033;SDS011;30771;47.988;-4.186;2022-10-16T16:26:27;23.27;;;3.92;;
45033;SDS011;30771;47.988;-4.186;2022-10-16T16:28:54;22.33;;;4.40;;
45033;SDS011;30771;47.988;-4.186;2022-10-16T16:31:19;21.67;;;3.72;;
45033;SDS011;30771;47.988;-4.186;2022-10-16T16:33:45;32.88;;;4.15;;
45033;SDS011;30771;47.988;-4.186;2022-10-16T16:36:10;23.63;;;4.07;;
45033;SDS011;30771;47.988;-4.186;2022-10-16T16:38:35;29.02;;;4.43;;
45033;SDS011;30771;47.988;-4.186;2022-10-16T16:41:11;22.58;;;3.97;;
45033;SDS011;30771;47.988;-4.186;2022-10-16T16:43:41;26.92;;;3.83;;
45033;SDS011;30771;47.988;-4.186;2022-10-16T16:46:07;24.45;;;3.72;;
45033;SDS011;30771;47.988;-4.186;2022-10-16T16:48:32;30.10;;;3.60;;
45033;SDS011;30771;47.988;-4.186;2022-10-16T16:51:05;19.92;;;3.13;;
45033;SDS011;30771;47.988;-4.186;2022-10-16T16:53:35;18.40;;;3.92;;
45033;SDS011;30771;47.988;-4.186;2022-10-16T16:56:04;30.70;;;3.83;;
45033;SDS011;30771;47.988;-4.186;2022-10-16T16:58:30;24.52;;;3.67;;
45033;SDS011;30771;47.988;-4.186;2022-10-16T17:00:56;17.63;;;3.47;;
45033;SDS011;30771;47.988;-4.186;2022-10-16T17:03:22;22.02;;;3.42;;
45033;SDS011;30771;47.988;-4.186;2022-10-16T17:06:07;21.88;;;4.20;;
45033;SDS011;30771;47.988;-4.186;2022-10-16T17:08:33;23.23;;;3.88;;
45033;SDS011;30771;47.988;-4.186;2022-10-16T17:10:59;23.30;;;3.90;;
45033;SDS011;30771;47.988;-4.186;2022-10-16T17:13:25;30.60;;;3.85;;
45033;SDS011;30771;47.988;-4.186;2022-10-16T17:15:53;29.77;;;4.03;;
45033;SDS011;30771;47.988;-4.186;2022-10-16T17:18:19;34.60;;;4.00;;
45033;SDS011;30771;47.988;-4.186;2022-10-16T17:20:46;35.45;;;5.22;;
45033;SDS011;30771;47.988;-4.186;2022-10-16T17:23:12;36.10;;;4.43;;
45033;SDS011;30771;47.988;-4.186;2022-10-16T17:25:38;26.17;;;4.50;;
45033;SDS011;30771;47.988;-4.186;2022-10-16T17:28:04;34.78;;;4.20;;
45033;SDS011;30771;47.988;-4.186;2022-10-16T17:30:30;28.23;;;4.13;;
45033;SDS011;30771;47.988;-4.186;2022-10-16T17:32:56;33.50;;;4.65;;
45033;SDS011;30771;47.988;-4.186;2022-10-16T17:35:22;35.13;;;4.75;;
45033;SDS011;30771;47.988;-4.186;2022-10-16T17:37:47;36.05;;;5.13;;
45033;SDS011;30771;47.988;-4.186;2022-10-16T17:40:12;45.67;;;5.55;;
45033;SDS011;30771;47.988;-4.186;2022-10-16T17:42:37;36.38;;;5.43;;
45033;SDS011;30771;47.988;-4.186;2022-10-16T17:45:03;36.10;;;5.32;;
45033;SDS011;30771;47.988;-4.186;2022-10-16T17:47:28;36.60;;;5.05;;
45033;SDS011;30771;47.988;-4.186;2022-10-16T17:49:54;26.83;;;5.22;;
45033;SDS011;30771;47.988;-4.186;2022-10-16T17:52:19;35.10;;;5.60;;
45033;SDS011;30771;47.988;-4.186;2022-10-16T17:54:44;31.70;;;4.47;;
45033;SDS011;30771;47.988;-4.186;2022-10-16T17:57:10;41.35;;;5.65;;
45033;SDS011;30771;47.988;-4.186;2022-10-16T17:59:35;41.20;;;5.90;;
45033;SDS011;30771;47.988;-4.186;2022-10-16T18:02:00;36.08;;;4.68;;
45033;SDS011;30771;47.988;-4.186;2022-10-16T18:04:26;36.85;;;6.00;;
45033;SDS011;30771;47.988;-4.186;2022-10-16T18:06:51;32.10;;;5.30;;
45033;SDS011;30771;47.988;-4.186;2022-10-16T18:09:17;31.27;;;5.40;;
45033;SDS011;30771;47.988;-4.186;2022-10-16T18:11:43;35.15;;;4.93;;
45033;SDS011;30771;47.988;-4.186;2022-10-16T18:14:11;40.42;;;5.55;;
45033;SDS011;30771;47.988;-4.186;2022-10-16T18:16:38;43.67;;;6.20;;
45033;SDS011;30771;47.988;-4.186;2022-10-16T18:19:04;42.38;;;6.13;;
45033;SDS011;30771;47.988;-4.186;2022-10-16T18:21:29;45.72;;;6.53;;
45033;SDS011;30771;47.988;-4.186;2022-10-16T18:23:55;38.15;;;8.18;;
45033;SDS011;30771;47.988;-4.186;2022-10-16T18:26:22;47.75;;;7.57;;
45033;SDS011;30771;47.988;-4.186;2022-10-16T18:28:50;43.33;;;7.35;;
45033;SDS011;30771;47.988;-4.186;2022-10-16T18:31:17;42.17;;;8.88;;
45033;SDS011;30771;47.988;-4.186;2022-10-16T18:33:42;49.95;;;10.65;;
45033;SDS011;30771;47.988;-4.186;2022-10-16T18:36:08;61.40;;;16.80;;
45033;SDS011;30771;47.988;-4.186;2022-10-16T18:38:35;40.83;;;7.40;;
45033;SDS011;30771;47.988;-4.186;2022-10-16T18:41:01;38.55;;;5.97;;
45033;SDS011;30771;47.988;-4.186;2022-10-16T18:43:27;48.38;;;7.00;;
45033;SDS011;30771;47.988;-4.186;2022-10-16T18:46:00;53.92;;;6.35;;
45033;SDS011;30771;47.988;-4.186;2022-10-16T18:48:27;50.88;;;7.22;;
45033;SDS011;30771;47.988;-4.186;2022-10-16T18:50:53;50.28;;;6.53;;
45033;SDS011;30771;47.988;-4.186;2022-10-16T18:53:18;49.78;;;6.70;;
45033;SDS011;30771;47.988;-4.186;2022-10-16T18:55:50;52.55;;;6.47;;
45033;SDS011;30771;47.988;-4.186;2022-10-16T18:58:16;50.45;;;5.93;;
45033;SDS011;30771;47.988;-4.186;2022-10-16T19:00:41;47.25;;;6.43;;
45033;SDS011;30771;47.988;-4.186;2022-10-16T19:03:06;46.25;;;5.82;;
45033;SDS011;30771;47.988;-4.186;2022-10-16T19:05:32;52.50;;;6.32;;
45033;SDS011;30771;47.988;-4.186;2022-10-16T19:07:58;57.80;;;6.13;;
45033;SDS011;30771;47.988;-4.186;2022-10-16T19:10:23;45.42;;;6.13;;
45033;SDS011;30771;47.988;-4.186;2022-10-16T19:12:48;47.40;;;6.05;;
45033;SDS011;30771;47.988;-4.186;2022-10-16T19:15:14;51.30;;;6.85;;
45033;SDS011;30771;47.988;-4.186;2022-10-16T19:17:39;56.60;;;6.32;;
45033;SDS011;30771;47.988;-4.186;2022-10-16T19:20:04;45.55;;;6.03;;
45033;SDS011;30771;47.988;-4.186;2022-10-16T19:22:30;56.17;;;6.85;;
45033;SDS011;30771;47.988;-4.186;2022-10-16T19:24:56;51.13;;;7.28;;
45033;SDS011;30771;47.988;-4.186;2022-10-16T19:27:21;39.28;;;5.65;;
45033;SDS011;30771;47.988;-4.186;2022-10-16T19:29:46;53.00;;;6.30;;
45033;SDS011;30771;47.988;-4.186;2022-10-16T19:32:12;41.53;;;5.63;;
45033;SDS011;30771;47.988;-4.186;2022-10-16T19:34:37;43.63;;;5.68;;
45033;SDS011;30771;47.988;-4.186;2022-10-16T19:37:03;43.58;;;5.63;;
45033;SDS011;30771;47.988;-4.186;2022-10-16T19:39:28;49.08;;;5.97;;
45033;SDS011;30771;47.988;-4.186;2022-10-16T19:41:53;33.78;;;4.50;;
45033;SDS011;30771;47.988;-4.186;2022-10-16T19:44:19;35.55;;;5.50;;
45033;SDS011;30771;47.988;-4.186;2022-10-16T19:46:44;44.65;;;5.25;;
45033;SDS011;30771;47.988;-4.186;2022-10-16T19:49:11;57.25;;;5.20;;
45033;SDS011;30771;47.988;-4.186;2022-10-16T19:51:38;48.50;;;6.38;;
45033;SDS011;30771;47.988;-4.186;2022-10-16T19:54:05;56.65;;;6.32;;
45033;SDS011;30771;47.988;-4.186;2022-10-16T19:56:33;46.28;;;6.05;;
45033;SDS011;30771;47.988;-4.186;2022-10-16T19:58:59;40.65;;;5.75;;
45033;SDS011;30771;47.988;-4.186;2022-10-16T20:01:26;39.10;;;4.95;;
45033;SDS011;30771;47.988;-4.186;2022-10-16T20:03:52;40.67;;;5.45;;
45033;SDS011;30771;47.988;-4.186;2022-10-16T20:06:18;45.88;;;5.15;;
45033;SDS011;30771;47.988;-4.186;2022-10-16T20:08:45;39.65;;;5.18;;
45033;SDS011;30771;47.988;-4.186;2022-10-16T20:11:12;48.25;;;5.80;;
45033;SDS011;30771;47.988;-4.186;2022-10-16T20:13:39;43.53;;;4.90;;
45033;SDS011;30771;47.988;-4.186;2022-10-16T20:16:04;51.95;;;5.25;;
45033;SDS011;30771;47.988;-4.186;2022-10-16T20:18:31;39.58;;;5.15;;
45033;SDS011;30771;47.988;-4.186;2022-10-16T20:20:56;60.88;;;5.93;;
45033;SDS011;30771;47.988;-4.186;2022-10-16T20:23:22;57.53;;;5.32;;
45033;SDS011;30771;47.988;-4.186;2022-10-16T20:25:47;43.88;;;4.68;;
45033;SDS011;30771;47.988;-4.186;2022-10-16T20:28:14;49.47;;;5.40;;
45033;SDS011;30771;47.988;-4.186;2022-10-16T20:30:42;48.97;;;5.55;;
45033;SDS011;30771;47.988;-4.186;2022-10-16T20:33:08;49.60;;;5.25;;
45033;SDS011;30771;47.988;-4.186;2022-10-16T20:35:38;52.40;;;6.10;;
45033;SDS011;30771;47.988;-4.186;2022-10-16T20:38:08;59.13;;;5.68;;
45033;SDS011;30771;47.988;-4.186;2022-10-16T20:40:35;62.38;;;5.65;;
45033;SDS011;30771;47.988;-4.186;2022-10-16T20:43:02;43.10;;;5.10;;
45033;SDS011;30771;47.988;-4.186;2022-10-16T20:45:28;56.55;;;5.45;;
45033;SDS011;30771;47.988;-4.186;2022-10-16T20:47:54;58.17;;;5.30;;
45033;SDS011;30771;47.988;-4.186;2022-10-16T20:50:19;42.38;;;5.25;;
45033;SDS011;30771;47.988;-4.186;2022-10-16T20:52:45;45.28;;;4.85;;
45033;SDS011;30771;47.988;-4.186;2022-10-16T20:55:10;43.72;;;5.70;;
45033;SDS011;30771;47.988;-4.186;2022-10-16T20:57:35;52.95;;;4.82;;
45033;SDS011;30771;47.988;-4.186;2022-10-16T21:00:01;58.15;;;5.38;;
45033;SDS011;30771;47.988;-4.186;2022-10-16T21:02:27;47.55;;;5.53;;
45033;SDS011;30771;47.988;-4.186;2022-10-16T21:04:52;47.33;;;4.88;;
45033;SDS011;30771;47.988;-4.186;2022-10-16T21:07:18;43.72;;;4.85;;
45033;SDS011;30771;47.988;-4.186;2022-10-16T21:09:43;41.70;;;4.93;;
45033;SDS011;30771;47.988;-4.186;2022-10-16T21:12:09;38.83;;;4.82;;
45033;SDS011;30771;47.988;-4.186;2022-10-16T21:14:34;50.35;;;5.53;;
45033;SDS011;30771;47.988;-4.186;2022-10-16T21:17:00;34.00;;;4.10;;
45033;SDS011;30771;47.988;-4.186;2022-10-16T21:19:27;56.45;;;4.80;;
45033;SDS011;30771;47.988;-4.186;2022-10-16T21:21:53;45.40;;;5.68;;
45033;SDS011;30771;47.988;-4.186;2022-10-16T21:24:18;53.75;;;4.85;;
45033;SDS011;30771;47.988;-4.186;2022-10-16T21:26:43;42.08;;;4.97;;
45033;SDS011;30771;47.988;-4.186;2022-10-16T21:29:09;42.08;;;4.60;;
45033;SDS011;30771;47.988;-4.186;2022-10-16T21:31:35;47.42;;;4.60;;
45033;SDS011;30771;47.988;-4.186;2022-10-16T21:34:00;41.50;;;4.43;;
45033;SDS011;30771;47.988;-4.186;2022-10-16T21:36:29;36.17;;;3.75;;
45033;SDS011;30771;47.988;-4.186;2022-10-16T21:39:00;41.70;;;4.25;;
45033;SDS011;30771;47.988;-4.186;2022-10-16T21:41:27;44.35;;;5.25;;
45033;SDS011;30771;47.988;-4.186;2022-10-16T21:43:54;47.58;;;5.38;;
45033;SDS011;30771;47.988;-4.186;2022-10-16T21:46:21;49.33;;;4.38;;
45033;SDS011;30771;47.988;-4.186;2022-10-16T21:48:48;45.60;;;4.30;;
45033;SDS011;30771;47.988;-4.186;2022-10-16T21:51:16;51.50;;;5.35;;
45033;SDS011;30771;47.988;-4.186;2022-10-16T21:53:41;53.65;;;4.97;;
45033;SDS011;30771;47.988;-4.186;2022-10-16T21:56:13;51.42;;;4.95;;
45033;SDS011;30771;47.988;-4.186;2022-10-16T21:58:41;44.45;;;4.15;;
